createdAt,value
2018-09-25T00:00:47.515Z,7.10
2018-09-25T00:03:21.864Z,7.53
2018-09-25T00:05:56.322Z,6.27
2018-09-25T00:08:30.601Z,6.13
2018-09-25T00:11:05.025Z,5.60
2018-09-25T00:13:39.425Z,5.73
2018-09-25T00:16:13.782Z,5.65
2018-09-25T00:18:48.311Z,5.60
2018-09-25T00:21:23.024Z,5.70
2018-09-25T00:23:57.336Z,5.95
2018-09-25T00:26:31.573Z,6.20
2018-09-25T00:29:05.912Z,6.93
2018-09-25T00:31:40.214Z,7.28
2018-09-25T00:34:14.708Z,6.97
2018-09-25T00:36:49.468Z,7.10
2018-09-25T00:39:23.885Z,6.65
2018-09-25T00:41:58.330Z,7.10
2018-09-25T00:44:32.701Z,6.40
2018-09-25T00:47:07.015Z,6.13
2018-09-25T00:49:41.385Z,5.13
2018-09-25T00:52:15.844Z,5.90
2018-09-25T00:54:50.092Z,6.00
2018-09-25T00:57:24.612Z,5.50
2018-09-25T00:59:58.874Z,5.17
2018-09-25T01:02:33.168Z,5.37
2018-09-25T01:05:07.545Z,5.67
2018-09-25T01:07:41.982Z,5.67
2018-09-25T01:10:16.324Z,5.08
2018-09-25T01:12:50.577Z,4.53
2018-09-25T01:15:25.045Z,5.13
2018-09-25T01:17:59.384Z,5.37
2018-09-25T01:20:33.768Z,4.57
2018-09-25T01:23:08.316Z,5.58
2018-09-25T01:25:42.615Z,5.37
2018-09-25T01:28:16.987Z,4.92
2018-09-25T01:30:51.505Z,5.23
2018-09-25T01:33:26.400Z,4.80
2018-09-25T01:36:00.980Z,4.97
2018-09-25T01:38:35.451Z,5.20
2018-09-25T01:41:09.916Z,5.27
2018-09-25T01:43:44.200Z,4.90
2018-09-25T01:46:18.682Z,5.40
2018-09-25T01:48:53.741Z,4.47
2018-09-25T01:51:28.234Z,5.10
2018-09-25T01:54:02.642Z,5.07
2018-09-25T01:56:37.118Z,5.10
2018-09-25T01:59:11.623Z,4.50
2018-09-25T02:01:46.056Z,4.70
2018-09-25T02:04:20.349Z,5.30
2018-09-25T02:06:54.882Z,4.97
2018-09-25T02:09:29.281Z,5.20
2018-09-25T02:12:03.678Z,5.00
2018-09-25T02:14:38.416Z,5.47
2018-09-25T02:17:12.967Z,5.00
2018-09-25T02:19:51.364Z,5.37
2018-09-25T02:22:26.368Z,5.60
2018-09-25T02:25:00.815Z,5.00
2018-09-25T02:27:35.299Z,5.83
2018-09-25T02:30:09.761Z,6.27
2018-09-25T02:32:44.188Z,6.03
2018-09-25T02:35:18.622Z,6.87
2018-09-25T02:37:53.208Z,6.33
2018-09-25T02:40:27.726Z,6.23
2018-09-25T02:43:02.176Z,5.27
2018-09-25T02:45:36.574Z,4.93
2018-09-25T02:48:11.102Z,5.03
2018-09-25T02:50:45.429Z,5.80
2018-09-25T02:53:19.778Z,5.20
2018-09-25T02:55:54.257Z,4.63
2018-09-25T02:58:28.621Z,4.30
2018-09-25T03:01:03.089Z,4.15
2018-09-25T03:03:37.536Z,3.40
2018-09-25T03:06:12.151Z,2.80
2018-09-25T03:08:47.219Z,3.20
2018-09-25T03:11:21.620Z,2.75
2018-09-25T03:13:55.941Z,2.90
2018-09-25T03:16:30.339Z,2.83
2018-09-25T03:19:04.737Z,3.40
2018-09-25T03:21:39.933Z,2.97
2018-09-25T03:24:14.388Z,3.07
2018-09-25T03:26:48.915Z,3.30
2018-09-25T03:29:23.377Z,3.77
2018-09-25T03:31:57.885Z,3.97
2018-09-25T03:34:32.309Z,4.20
2018-09-25T03:37:06.737Z,4.75
2018-09-25T03:39:41.632Z,4.53
2018-09-25T03:42:17.361Z,5.23
2018-09-25T03:44:51.608Z,4.97
2018-09-25T03:47:27.856Z,5.47
2018-09-25T03:50:02.096Z,4.53
2018-09-25T03:52:36.540Z,4.43
2018-09-25T03:55:10.964Z,4.70
2018-09-25T03:57:45.524Z,4.50
2018-09-25T04:00:19.925Z,4.07
2018-09-25T04:02:55.130Z,5.03
2018-09-25T04:05:29.617Z,4.30
2018-09-25T04:08:04.053Z,3.98
2018-09-25T04:10:38.486Z,5.25
2018-09-25T04:13:12.969Z,5.70
2018-09-25T04:15:47.401Z,5.90
2018-09-25T04:18:21.856Z,6.17
2018-09-25T04:20:56.367Z,5.33
2018-09-25T04:23:31.508Z,5.78
2018-09-25T04:26:05.933Z,5.03
2018-09-25T04:28:40.460Z,5.55
2018-09-25T04:31:15.279Z,4.73
2018-09-25T04:33:50.250Z,5.60
2018-09-25T04:36:25.132Z,5.40
2018-09-25T04:38:59.713Z,5.30
2018-09-25T04:41:34.606Z,6.30
2018-09-25T04:44:09.515Z,5.33
2018-09-25T04:46:44.478Z,5.83
2018-09-25T04:49:19.356Z,4.97
2018-09-25T04:51:54.260Z,5.53
2018-09-25T04:54:29.596Z,5.95
2018-09-25T04:57:04.284Z,5.87
2018-09-25T04:59:39.117Z,6.23
2018-09-25T05:02:14.237Z,6.30
2018-09-25T05:04:48.941Z,5.97
2018-09-25T05:07:23.732Z,5.10
2018-09-25T05:09:59.128Z,5.03
2018-09-25T05:12:33.496Z,4.90
2018-09-25T05:15:08.343Z,5.40
2018-09-25T05:17:43.496Z,4.97
2018-09-25T05:20:18.364Z,5.27
2018-09-25T05:22:54.506Z,5.95
2018-09-25T05:25:29.049Z,5.80
2018-09-25T05:28:03.517Z,6.47
2018-09-25T05:30:38.009Z,6.00
2018-09-25T05:33:12.715Z,6.97
2018-09-25T05:35:48.074Z,5.73
2018-09-25T05:38:22.806Z,3.90
2018-09-25T05:40:57.479Z,3.27
2018-09-25T05:43:32.012Z,3.33
2018-09-25T05:46:06.594Z,3.67
2018-09-25T05:48:41.484Z,3.47
2018-09-25T05:51:16.354Z,3.87
2018-09-25T05:53:51.145Z,3.50
2018-09-25T05:56:26.260Z,3.77
2018-09-25T05:59:00.805Z,3.40
2018-09-25T06:01:35.346Z,2.93
2018-09-25T06:04:10.169Z,3.27
2018-09-25T06:06:44.992Z,3.90
2018-09-25T06:09:19.770Z,3.77
2018-09-25T06:11:54.196Z,3.70
2018-09-25T06:14:28.754Z,4.47
2018-09-25T06:17:03.254Z,3.47
2018-09-25T06:19:38.216Z,3.40
2018-09-25T06:22:15.410Z,2.63
2018-09-25T06:24:49.967Z,3.00
2018-09-25T06:27:24.736Z,2.80
2018-09-25T06:29:59.290Z,2.70
2018-09-25T06:32:34.018Z,3.55
2018-09-25T06:35:09.017Z,3.08
2018-09-25T06:37:44.459Z,3.00
2018-09-25T06:40:18.930Z,3.05
2018-09-25T06:42:53.803Z,2.47
2018-09-25T06:45:28.240Z,2.90
2018-09-25T06:48:02.621Z,2.67
2018-09-25T06:50:36.944Z,2.47
2018-09-25T06:53:12.460Z,2.80
2018-09-25T06:55:47.233Z,3.05
2018-09-25T06:58:22.095Z,2.43
2018-09-25T07:00:56.884Z,2.53
2018-09-25T07:03:31.394Z,1.90
2018-09-25T07:06:05.975Z,2.27
2018-09-25T07:08:40.449Z,2.33
2018-09-25T07:11:14.983Z,1.80
2018-09-25T07:13:49.682Z,1.70
2018-09-25T07:16:24.320Z,2.02
2018-09-25T07:18:58.903Z,2.42
2018-09-25T07:21:33.564Z,2.08
2018-09-25T07:24:08.213Z,1.80
2018-09-25T07:26:43.109Z,2.10
2018-09-25T07:29:17.716Z,2.00
2018-09-25T07:31:52.601Z,1.70
2018-09-25T07:34:27.364Z,2.20
2018-09-25T07:37:02.069Z,1.90
2018-09-25T07:39:36.749Z,2.33
2018-09-25T07:42:11.485Z,2.30
2018-09-25T07:44:46.485Z,2.25
2018-09-25T07:47:21.549Z,2.00
2018-09-25T07:49:56.082Z,2.33
2018-09-25T07:52:30.729Z,2.22
2018-09-25T07:55:05.202Z,3.03
2018-09-25T07:57:40.141Z,3.57
2018-09-25T08:00:14.755Z,3.10
2018-09-25T08:02:49.537Z,3.27
2018-09-25T08:05:24.330Z,3.80
2018-09-25T08:07:58.844Z,4.75
2018-09-25T08:10:33.528Z,5.17
2018-09-25T08:13:08.328Z,5.97
2018-09-25T08:15:43.458Z,4.33
2018-09-25T08:18:18.281Z,3.50
2018-09-25T08:20:53.231Z,3.67
2018-09-25T08:23:27.999Z,4.30
2018-09-25T08:26:02.545Z,5.00
2018-09-25T08:28:37.267Z,4.83
2018-09-25T08:31:12.273Z,4.10
2018-09-25T08:33:47.389Z,4.20
2018-09-25T08:36:22.688Z,3.70
2018-09-25T08:38:57.269Z,3.33
2018-09-25T08:41:32.665Z,2.45
2018-09-25T08:44:07.390Z,2.93
2018-09-25T08:46:42.115Z,3.20
2018-09-25T08:49:18.343Z,2.60
2018-09-25T08:51:54.613Z,2.80
2018-09-25T08:54:29.914Z,3.55
2018-09-25T08:57:04.677Z,3.55
2018-09-25T08:59:39.624Z,2.47
2018-09-25T09:02:14.445Z,2.60
2018-09-25T09:04:49.614Z,2.57
2018-09-25T09:07:24.457Z,2.95
2018-09-25T09:09:58.969Z,2.75
2018-09-25T09:12:33.973Z,3.15
2018-09-25T09:15:11.763Z,2.60
2018-09-25T09:17:47.032Z,2.85
2018-09-25T09:20:22.047Z,2.80
2018-09-25T09:22:57.069Z,2.93
2018-09-25T09:25:32.067Z,3.37
2018-09-25T09:28:06.623Z,2.70
2018-09-25T09:30:41.233Z,2.87
2018-09-25T09:33:17.500Z,2.63
2018-09-25T09:35:52.458Z,2.90
2018-09-25T09:38:27.975Z,2.40
2018-09-25T09:41:02.688Z,2.42
2018-09-25T09:43:37.348Z,2.60
2018-09-25T09:46:11.798Z,2.27
2018-09-25T09:48:47.266Z,2.83
2018-09-25T09:51:22.536Z,3.10
2018-09-25T09:53:57.292Z,3.70
2018-09-25T09:56:32.416Z,2.47
2018-09-25T09:59:07.320Z,2.47
2018-09-25T10:01:42.590Z,2.00
2018-09-25T10:04:18.546Z,1.30
2018-09-25T10:06:53.806Z,1.57
2018-09-25T10:09:28.486Z,2.00
2018-09-25T10:12:03.589Z,1.50
2018-09-25T10:14:38.250Z,1.60
2018-09-25T10:17:13.336Z,1.65
2018-09-25T10:19:49.006Z,1.33
2018-09-25T10:22:24.237Z,1.30
2018-09-25T10:24:59.081Z,1.75
2018-09-25T10:27:34.159Z,2.87
2018-09-25T10:30:09.782Z,3.60
2018-09-25T10:32:45.002Z,2.72
2018-09-25T10:35:19.742Z,2.90
2018-09-25T10:37:54.869Z,2.30
2018-09-25T10:40:30.201Z,3.00
2018-09-25T10:43:05.824Z,2.50
2018-09-25T10:45:40.562Z,2.47
2018-09-25T10:48:15.653Z,2.50
2018-09-25T10:50:50.961Z,2.30
2018-09-25T10:53:25.965Z,2.00
2018-09-25T10:56:01.054Z,2.50
2018-09-25T10:58:37.510Z,2.50
2018-09-25T11:01:12.693Z,2.10
2018-09-25T11:03:47.509Z,2.23
2018-09-25T11:06:22.958Z,2.05
2018-09-25T11:08:58.395Z,1.70
2018-09-25T11:11:33.428Z,2.10
2018-09-25T11:14:08.184Z,1.40
2018-09-25T11:16:43.157Z,1.47
2018-09-25T11:19:18.533Z,1.40
2018-09-25T11:21:53.374Z,1.37
2018-09-25T11:24:28.248Z,1.60
2018-09-25T11:27:02.888Z,1.33
2018-09-25T11:29:38.658Z,1.50
2018-09-25T11:32:13.614Z,1.45
2018-09-25T11:34:48.761Z,1.73
2018-09-25T11:37:25.423Z,1.33
2018-09-25T11:40:01.392Z,1.32
2018-09-25T11:42:36.177Z,1.30
2018-09-25T11:45:11.499Z,1.37
2018-09-25T11:47:46.275Z,1.40
2018-09-25T11:50:21.136Z,1.37
2018-09-25T11:52:56.632Z,1.20
2018-09-25T11:55:32.450Z,1.00
2018-09-25T12:00:57.952Z,1.13
2018-09-25T12:03:33.324Z,1.17
2018-09-25T12:06:08.233Z,1.40
2018-09-25T12:08:43.953Z,1.47
2018-09-25T12:11:18.780Z,1.17
2018-09-25T12:13:53.795Z,1.23
2018-09-25T12:16:28.538Z,1.57
2018-09-25T12:19:03.069Z,1.17
2018-09-25T12:21:37.973Z,1.50
2018-09-25T12:24:13.187Z,1.90
2018-09-25T12:26:48.106Z,1.60
2018-09-25T12:29:22.823Z,1.63
2018-09-25T12:31:57.707Z,1.60
2018-09-25T12:34:32.765Z,1.57
2018-09-25T12:37:07.254Z,1.50
2018-09-25T12:39:42.150Z,1.37
2018-09-25T12:42:16.806Z,1.30
2018-09-25T12:44:51.377Z,1.30
2018-09-25T12:47:25.966Z,1.70
2018-09-25T12:50:00.572Z,1.60
2018-09-25T12:52:35.236Z,2.60
2018-09-25T12:55:10.203Z,1.40
2018-09-25T12:57:45.616Z,1.90
2018-09-25T13:00:20.216Z,1.17
2018-09-25T13:02:54.892Z,1.77
2018-09-25T13:05:29.685Z,1.47
2018-09-25T13:08:04.533Z,1.42
2018-09-25T13:10:39.514Z,1.40
2018-09-25T13:13:14.252Z,1.12
2018-09-25T13:15:49.041Z,1.30
2018-09-25T13:18:23.564Z,1.73
2018-09-25T13:20:58.163Z,1.30
2018-09-25T13:23:33.019Z,1.23
2018-09-25T13:26:07.705Z,1.40
2018-09-25T13:28:42.591Z,0.97
2018-09-25T13:31:17.606Z,1.02
2018-09-25T13:33:53.578Z,1.15
2018-09-25T13:36:28.612Z,1.80
2018-09-25T13:39:03.136Z,1.30
2018-09-25T13:41:37.940Z,1.50
2018-09-25T13:44:12.623Z,1.60
2018-09-25T13:46:47.601Z,1.80
2018-09-25T13:49:21.924Z,1.80
2018-09-25T13:51:56.773Z,1.90
2018-09-25T13:54:31.687Z,1.97
2018-09-25T13:57:06.167Z,1.83
2018-09-25T13:59:42.417Z,2.43
2018-09-25T14:02:17.483Z,1.70
2018-09-25T14:04:52.417Z,1.97
2018-09-25T14:07:27.481Z,2.47
2018-09-25T14:10:02.202Z,2.90
2018-09-25T14:12:36.668Z,2.70
2018-09-25T14:15:12.786Z,2.60
2018-09-25T14:17:48.794Z,2.33
2018-09-25T14:20:23.594Z,2.37
2018-09-25T14:22:58.033Z,2.40
2018-09-25T14:25:32.975Z,2.47
2018-09-25T14:28:07.499Z,2.30
2018-09-25T14:30:41.998Z,2.50
2018-09-25T14:33:16.603Z,2.00
2018-09-25T14:35:51.269Z,2.20
2018-09-25T14:38:26.098Z,2.25
2018-09-25T14:41:02.713Z,2.50
2018-09-25T14:43:37.494Z,2.17
2018-09-25T14:46:12.134Z,2.40
2018-09-25T14:48:47.070Z,3.10
2018-09-25T14:51:21.852Z,2.20
2018-09-25T14:53:56.710Z,2.17
2018-09-25T14:56:31.451Z,2.10
2018-09-25T14:59:06.097Z,3.03
2018-09-25T15:01:40.886Z,2.50
2018-09-25T15:04:15.699Z,2.98
2018-09-25T15:06:50.594Z,2.40
2018-09-25T15:09:25.251Z,2.50
2018-09-25T15:11:59.836Z,2.40
2018-09-25T15:14:34.334Z,2.00
2018-09-25T15:17:08.985Z,2.60
2018-09-25T15:19:43.872Z,2.93
2018-09-25T15:22:22.094Z,3.00
2018-09-25T15:24:56.199Z,2.70
2018-09-25T15:27:31.142Z,3.23
2018-09-25T15:30:07.772Z,2.90
2018-09-25T15:32:42.659Z,2.73
2018-09-25T15:35:17.564Z,3.67
2018-09-25T15:37:52.715Z,2.93
2018-09-25T15:40:27.496Z,3.05
2018-09-25T15:43:02.234Z,2.75
2018-09-25T15:45:37.311Z,2.30
2018-09-25T15:48:12.013Z,1.97
2018-09-25T15:50:47.417Z,2.62
2018-09-25T15:53:23.688Z,2.57
2018-09-25T15:55:58.876Z,2.37
2018-09-25T15:58:34.070Z,2.67
2018-09-25T16:01:08.739Z,2.40
2018-09-25T16:03:43.666Z,1.90
2018-09-25T16:06:18.457Z,2.10
2018-09-25T16:08:53.731Z,2.03
2018-09-25T16:11:28.182Z,1.97
2018-09-25T16:14:02.744Z,1.67
2018-09-25T16:16:37.564Z,1.57
2018-09-25T16:19:12.435Z,1.20
2018-09-25T16:21:47.262Z,1.47
2018-09-25T16:24:21.729Z,0.72
2018-09-25T16:26:56.525Z,1.10
2018-09-25T16:29:31.005Z,1.07
2018-09-25T16:32:05.644Z,1.37
2018-09-25T16:34:40.248Z,1.00
2018-09-25T16:37:14.819Z,0.97
2018-09-25T16:39:49.899Z,0.90
2018-09-25T16:42:24.569Z,1.00
2018-09-25T16:44:59.267Z,1.32
2018-09-25T16:47:33.974Z,1.07
2018-09-25T16:50:08.414Z,1.37
2018-09-25T16:52:42.883Z,1.12
2018-09-25T16:55:18.103Z,0.90
2018-09-25T16:57:53.612Z,0.95
2018-09-25T17:00:28.705Z,0.75
2018-09-25T17:03:03.340Z,0.97
2018-09-25T17:05:38.038Z,0.73
2018-09-25T17:08:12.406Z,0.90
2018-09-25T17:10:47.930Z,1.00
2018-09-25T17:13:22.948Z,1.00
2018-09-25T17:15:57.389Z,1.10
2018-09-25T17:18:31.997Z,1.17
2018-09-25T17:21:08.208Z,1.20
2018-09-25T17:23:42.872Z,1.32
2018-09-25T17:26:18.312Z,0.90
2018-09-25T17:28:53.254Z,1.37
2018-09-25T17:31:28.002Z,1.40
2018-09-25T17:34:02.665Z,1.23
2018-09-25T17:36:37.333Z,1.17
2018-09-25T17:39:14.872Z,1.07
2018-09-25T17:41:49.846Z,1.12
2018-09-25T17:44:25.497Z,1.40
2018-09-25T17:47:00.116Z,1.30
2018-09-25T17:49:35.025Z,1.50
2018-09-25T17:52:10.240Z,1.00
2018-09-25T17:54:45.928Z,1.20
2018-09-25T17:57:21.637Z,1.40
2018-09-25T17:59:57.059Z,1.73
2018-09-25T18:02:32.592Z,1.33
2018-09-25T18:05:09.181Z,1.40
2018-09-25T18:07:46.738Z,1.33
2018-09-25T18:10:21.940Z,1.50
2018-09-25T18:12:57.875Z,1.37
2018-09-25T18:15:32.910Z,1.50
2018-09-25T18:18:07.839Z,2.30
2018-09-25T18:20:42.550Z,2.20
2018-09-25T18:23:18.590Z,2.17
2018-09-25T18:25:53.551Z,2.42
2018-09-25T18:28:28.683Z,2.42
2018-09-25T18:31:03.447Z,2.20
2018-09-25T18:33:38.343Z,2.17
2018-09-25T18:36:14.319Z,2.47
2018-09-25T18:38:49.055Z,2.80
2018-09-25T18:41:23.830Z,2.37
2018-09-25T18:43:58.332Z,2.73
2018-09-25T18:46:32.896Z,2.40
2018-09-25T18:49:07.332Z,2.58
2018-09-25T18:51:42.235Z,2.27
2018-09-25T18:54:16.558Z,2.00
2018-09-25T18:56:51.110Z,2.30
2018-09-25T18:59:25.852Z,2.00
2018-09-25T19:04:41.761Z,2.03
2018-09-25T19:07:16.548Z,2.50
2018-09-25T19:09:50.985Z,2.00
2018-09-25T19:12:25.698Z,2.27
2018-09-25T19:15:00.184Z,3.07
2018-09-25T19:17:34.680Z,8.40
2018-09-25T19:20:09.570Z,7.40
2018-09-25T19:22:44.307Z,5.47
2018-09-25T19:25:18.690Z,5.83
2018-09-25T19:27:53.602Z,5.58
2018-09-25T19:30:28.068Z,5.03
2018-09-25T19:33:02.548Z,4.03
2018-09-25T19:35:37.297Z,3.50
2018-09-25T19:38:11.769Z,3.55
2018-09-25T19:40:46.596Z,3.50
2018-09-25T19:43:21.090Z,3.10
2018-09-25T19:45:55.505Z,3.40
2018-09-25T19:48:29.819Z,3.40
2018-09-25T19:51:04.169Z,3.50
2018-09-25T19:53:38.765Z,3.60
2018-09-25T19:56:13.280Z,3.07
2018-09-25T19:58:47.898Z,2.90
2018-09-25T20:01:22.238Z,2.50
2018-09-25T20:03:56.633Z,3.20
2018-09-25T20:06:31.036Z,2.23
2018-09-25T20:09:05.457Z,2.53
2018-09-25T20:11:39.783Z,2.10
2018-09-25T20:14:14.420Z,1.67
2018-09-25T20:16:49.078Z,1.97
2018-09-25T20:19:26.354Z,1.82
2018-09-25T20:22:05.372Z,1.73
2018-09-25T20:24:40.892Z,1.50
2018-09-25T20:27:18.216Z,1.70
2018-09-25T20:29:54.754Z,2.03
2018-09-25T20:32:29.854Z,1.40
2018-09-25T20:35:08.390Z,1.97
2018-09-25T20:37:43.831Z,1.60
2018-09-25T20:40:20.383Z,1.70
2018-09-25T20:42:55.618Z,1.70
2018-09-25T20:45:34.784Z,1.53
2018-09-25T20:48:11.586Z,2.00
2018-09-25T20:50:48.995Z,1.77
2018-09-25T20:53:26.641Z,1.63
2018-09-25T20:56:01.482Z,1.67
2018-09-25T20:58:36.319Z,1.87
2018-09-25T21:01:17.029Z,2.05
2018-09-25T21:03:52.363Z,1.90
2018-09-25T21:06:27.536Z,1.40
2018-09-25T21:09:02.973Z,1.70
2018-09-25T21:11:37.909Z,2.33
2018-09-25T21:14:13.863Z,1.50
2018-09-25T21:16:48.572Z,1.57
2018-09-25T21:19:23.482Z,2.70
2018-09-25T21:21:59.887Z,1.87
2018-09-25T21:24:35.587Z,1.60
2018-09-25T21:27:14.280Z,1.45
2018-09-25T21:29:50.621Z,1.67
2018-09-25T21:32:25.884Z,1.50
2018-09-25T21:35:04.177Z,1.40
2018-09-25T21:37:40.909Z,1.50
2018-09-25T21:40:17.930Z,1.70
2018-09-25T21:42:55.329Z,1.30
2018-09-25T21:45:31.385Z,1.33
2018-09-25T21:48:08.443Z,1.23
2018-09-25T21:50:46.581Z,1.37
2018-09-25T21:53:24.572Z,1.20
2018-09-25T21:56:05.498Z,1.10
2018-09-25T21:58:42.266Z,1.30
2018-09-25T22:01:20.228Z,1.60
2018-09-25T22:03:56.888Z,1.42
2018-09-25T22:06:33.616Z,1.30
2018-09-25T22:09:14.180Z,1.17
2018-09-25T22:11:50.774Z,1.40
2018-09-25T22:14:27.605Z,1.17
2018-09-25T22:17:04.111Z,1.20
2018-09-25T22:19:39.823Z,1.00
2018-09-25T22:22:14.965Z,1.20
2018-09-25T22:24:51.613Z,1.00
2018-09-25T22:27:26.127Z,1.23
2018-09-25T22:30:01.817Z,2.27
2018-09-25T22:32:38.241Z,1.45
2018-09-25T22:35:13.543Z,1.10
2018-09-25T22:37:51.501Z,1.30
2018-09-25T22:40:27.956Z,1.40
2018-09-25T22:43:02.623Z,1.23
2018-09-25T22:45:39.477Z,1.50
2018-09-25T22:48:18.405Z,1.17
2018-09-25T22:50:55.950Z,1.20
2018-09-25T22:53:31.140Z,1.27
2018-09-25T22:56:09.384Z,1.30
2018-09-25T22:58:44.778Z,1.40
2018-09-25T23:01:22.734Z,1.10
2018-09-25T23:04:01.163Z,1.40
2018-09-25T23:06:40.667Z,0.80
2018-09-25T23:09:17.769Z,0.90
2018-09-25T23:11:54.475Z,1.17
2018-09-25T23:14:30.227Z,1.10
2018-09-25T23:17:11.274Z,1.23
2018-09-25T23:19:51.566Z,1.30
2018-09-25T23:22:29.751Z,1.00
2018-09-25T23:25:05.592Z,1.70
2018-09-25T23:27:42.406Z,0.93
2018-09-25T23:30:19.670Z,1.07
2018-09-25T23:32:58.174Z,1.30
2018-09-25T23:35:33.336Z,1.00
2018-09-25T23:38:10.942Z,0.98
2018-09-25T23:40:47.360Z,0.93
2018-09-25T23:43:28.244Z,0.80
2018-09-25T23:46:07.175Z,1.10
2018-09-25T23:48:44.754Z,1.13
2018-09-25T23:51:33.645Z,0.93
2018-09-25T23:54:10.638Z,1.17
2018-09-25T23:57:18.395Z,2.10
